Moosonee Airport
CYMO : now visible

Airfield :











YOU CAN JOIN US ON...

 
LOGIN :

Register | Disclaimer

   EN    FR    IT 

 









Legend :    VFR   Marginal VFR   IFR   Intensive IFR   Very Intensive IFR
Visi :
Ceiling :
>= 8 km
>= 3000ft
5 to 8 km
1000 to 3000 ft
1500m to 5 km
500 to 1000 ft
800 to 1500m
200 to 500 ft
< 800m
< 200 ft
Symbols :   Thunderstorms  Fog  Heavy snow  Heavy precipitations  Wind > 20 kt






- Airport Elevation : 30 ft
- IATA code : YMO


CYMO - Moosonee

CURRENT METAR :
  • 041200Z AUTO VRB02KT 6SM BR OVC024 08/08 A3010 RMK SLP194

EXPIRED METARs :
  • 041117Z AUTO 02003KT 340V050 7SM BKN024 OVC033 08/08 A3010 RMK SLP195
  • 041035Z AUTO 02004KT 340V060 8SM -RA BKN024 OVC032 08/08 A3009 RMK SLP192
  • 041025Z AUTO 01004KT 9SM BKN024 OVC032 08/08 A3009 RMK SLP192
  • 041000Z AUTO 01004KT 9SM FEW022 OVC034 08/08 A3009 RMK SLP190
  • 040942Z AUTO 03004KT 350V050 9SM SCT022 OVC034 08/08 A3008 RMK SLP189
  • 040923Z AUTO 36004KT 9SM BKN022 BKN027 OVC032 08/08 A3009 RMK SLP190

TAF TAF CYMO
Valid from the 04 at 12:00 until the 05 at 00:00 UTC


041141Z 0412/0424 02005KT P6SM OVC030
TEMPO 0412/0420 5SM -SHRA BR OVC015
PROB30 0412/0416 BKN007 OVC015
FM042000 07006KT P6SM BKN015 OVC030
TEMPO 0420/0424 SCT015 BKN030 RMK FCST BASED ON AUTO OBS. NXT FCST BY 041800Z
CZYZ FIR / North America



MET'MAP, your aeronautical weather chart ! - Copyright ORBIFLY December 2007 - Disclaimer

ORBIFLY MET'MAP TEAM :

Programming & Development : Alexandra Zaïnal
Original concept : Baudouin d'Aumeries
Technical & hardware support : Manuel Goepfert
Assistance : Marc-Olivier Méhu




SOURCES & CREDITS :

   NOAA       Earth
Advisory